Flight Track Log - Related Links

Times and Time Zones

All times are in EDT time to prevent confusion due to time zone crossing. See the TCF3494 flight status page for this flight to view local times or setup timezone preferences in your user account.

Time Position Orientation Groundspeed Altitude Reporting Facility
EDT Latitude Longitude Course Direction KTS MPH feet Rate Location/Type
Fri 04:51:39 PM 41.9500 -87.9000 85° East 156 180 1,900  Level Chicago TRACON
Fri 04:52:39 PM 41.9333 -87.8500 114° Southeast 225 259 3,600 1,550 Climbing Chicago TRACON
Fri 04:53:39 PM 41.9333 -87.7500 90° East 280 322 5,000 994 Climbing Chicago TRACON
Fri 04:54:00 PM 41.9423 -87.2576 95° East  Level FlightAware Approximate
Fri 04:55:00 PM 41.9333 -87.0972 90° East  Level FlightAware Approximate
Fri 04:55:22 PM 41.9544 -87.5825 80° East 278 320 6,300  Level Chicago Center
Fri 04:56:00 PM 41.9333 -86.9361 90° East  Level FlightAware Approximate
Fri 04:56:24 PM 41.9525 -87.4703 91° East 297 342 9,000  Level Chicago Center
Fri 04:57:00 PM 41.9339 -86.7751 85° East  Level FlightAware Approximate
Fri 04:57:26 PM 41.9497 -87.3314 91° East 312 359 12,100  Level Chicago Center
Fri 04:58:28 PM 41.9481 -87.2083 91° East 330 380 13,800 1,984 Climbing Chicago Center
Fri 04:59:30 PM 41.9453 -87.0744 92° East 356 410 16,200 1,887 Climbing Chicago Center
Fri 05:00:32 PM 41.9467 -86.9411 89° East 363 418 17,700 1,500 Climbing Chicago Center
Fri 05:01:34 PM 41.9486 -86.7986 89° East 382 440 19,300 1,500 Climbing Chicago Center
Fri 05:02:36 PM 41.9517 -86.6564 88° East 387 445 20,800 823 Climbing Chicago Center
Fri 05:03:38 PM 41.9531 -86.4722 89° East 407 468 21,000 774 Climbing Chicago Center
Fri 05:04:40 PM 41.9550 -86.3189 89° East 409 471 22,400 1,306 Climbing Chicago Center
Fri 05:05:42 PM 41.9522 -86.1631 91° East 417 480 23,700 1,258 Climbing Chicago Center
Fri 05:06:44 PM 41.9358 -86.0008 98° East 433 498 25,000 1,152 Climbing Chicago Center
Fri 05:07:47 PM 41.9203 -85.8369 97° East 440 506 26,100 1,104 Climbing Chicago Center
Fri 05:08:49 PM 41.9033 -85.6658 98° East 455 524 27,300 1,161 Climbing Chicago Center
Fri 05:09:51 PM 41.8831 -85.4508 97° East 478 550 28,500 1,065 Climbing Chicago Center
Fri 05:10:53 PM 41.8653 -85.2653 97° East 492 566 29,500 968 Climbing Chicago Center
Fri 05:11:55 PM 41.8450 -85.0758 98° East 507 583 30,500 1,140 Climbing Chicago Center
Fri 05:12:33 PM 41.8331 -84.9478 97° East 495 570 31,400 1,286 Climbing Cleveland Center
Fri 05:13:33 PM 41.8150 -84.7600 97° East 507 583 32,600 1,200 Climbing Cleveland Center
Fri 05:14:33 PM 41.7947 -84.5719 98° East 507 583 33,800 1,200 Climbing Cleveland Center
Fri 05:15:33 PM 41.7761 -84.3842 98° East 507 583 35,000 600 Climbing Cleveland Center
Fri 05:16:33 PM 41.7647 -84.2192 95° East 507 583 35,000  Level Cleveland Center
Fri 05:17:33 PM 41.7522 -84.0125 95° East 502 578 35,000  Level Cleveland Center
Fri 05:18:33 PM 41.7369 -83.8278 96° East 502 578 35,000  Level Cleveland Center
Fri 05:19:33 PM 41.7253 -83.6408 95° East 502 578 35,000  Level Cleveland Center
Fri 05:20:33 PM 41.7133 -83.4539 95° East 502 578 35,000  Level Cleveland Center
Fri 05:21:33 PM 41.7011 -83.2697 95° East 502 578 35,000  Level Cleveland Center
Fri 05:22:33 PM 41.6847 -83.0800 97° East 502 578 35,000  Level Cleveland Center
Fri 05:23:33 PM 41.6719 -82.8961 95° East 502 578 35,000  Level Cleveland Center
Fri 05:24:33 PM 41.6567 -82.7092 96° East 502 578 35,000  Level Cleveland Center
Fri 05:25:33 PM 41.6433 -82.5225 95° East 502 578 35,000  Level Cleveland Center
Fri 05:26:33 PM 41.6297 -82.3361 96° East 502 578 35,000  Level Cleveland Center
Fri 05:27:33 PM 41.6175 -82.1692 96° East 502 578 35,000  Level Cleveland Center
Fri 05:28:33 PM 41.6011 -81.9800 97° East 502 578 35,000  Level Cleveland Center
Fri 05:29:33 PM 41.5847 -81.7936 97° East 502 578 35,000  Level Cleveland Center
Fri 05:30:33 PM 41.5658 -81.5906 97° East 507 583 35,000  Level Cleveland Center
Fri 05:31:33 PM 41.5506 -81.4017 96° East 507 583 35,000  Level Cleveland Center
Fri 05:32:33 PM 41.5331 -81.2156 97° East 507 583 35,000  Level Cleveland Center
Fri 05:33:33 PM 41.5172 -81.0242 96° East 506 582 35,000  Level Cleveland Center
Fri 05:34:33 PM 41.4989 -80.8411 98° East 506 582 35,000  Level Cleveland Center
Fri 05:35:33 PM 41.4806 -80.6553 97° East 506 582 35,000  Level Cleveland Center
Fri 05:36:33 PM 41.4639 -80.4667 97° East 501 577 35,000  Level Cleveland Center
Fri 05:37:33 PM 41.4489 -80.3006 97° East 501 577 35,000  Level Cleveland Center
Fri 05:38:33 PM 41.4317 -80.1122 97° East 501 577 35,000  Level Cleveland Center
Fri 05:39:33 PM 41.4119 -79.9297 98° East 501 577 35,000  Level Cleveland Center
Fri 05:40:33 PM 41.3919 -79.7444 98° East 501 577 35,000  Level Cleveland Center
Fri 05:41:33 PM 41.3739 -79.5567 97° East 508 585 35,000  Level Cleveland Center
Fri 05:42:33 PM 41.3553 -79.3742 98° East 502 578 35,000 -200 Level Cleveland Center
Fri 05:43:33 PM 41.3300 -79.1728 99° East 502 578 34,600 -600 Descending Cleveland Center
Fri 05:44:33 PM 41.3111 -78.9908 98° East 502 578 33,800 -700 Descending Cleveland Center
Fri 05:45:33 PM 41.2917 -78.8144 98° East 497 572 33,200 -400 Descending Cleveland Center
Fri 05:46:33 PM 41.2722 -78.6353 98° East 497 572 33,000 -73 Descending Cleveland Center
Fri 05:48:17 PM 41.2369 -78.3314 99° East 490 564 33,000  Level New York Center
Fri 05:49:18 PM 41.2147 -78.1522 99° East 490 564 33,000  Level New York Center
Fri 05:50:16 PM 41.1944 -77.9764 99° East 484 557 33,000  Level New York Center
Fri 05:51:17 PM 41.1714 -77.8028 100° East 484 557 33,000  Level New York Center
Fri 05:52:17 PM 41.1483 -77.6269 100° East 484 557 33,000 -595 Level New York Center
Fri 05:53:18 PM 41.1272 -77.4511 99° East 484 557 31,800 -1,537 Descending New York Center
Fri 05:54:18 PM 41.1050 -77.2892 100° East 471 542 29,900 -1,932 Descending New York Center
Fri 05:55:16 PM 41.0844 -77.1303 100° East 451 519 28,000 -1,881 Descending New York Center
Fri 05:56:16 PM 41.0631 -76.9822 101° East 428 493 26,200 -1,983 Descending New York Center
Fri 05:57:17 PM 41.0456 -76.8375 99° East 406 467 24,000 -2,033 Descending New York Center
Fri 05:58:17 PM 41.0269 -76.7122 101° East 394 453 22,100 -1,918 Descending New York Center
Fri 05:59:19 PM 41.0000 -76.5806 105° East 383 441 20,100 -1,966 Descending New York Center
Fri 06:00:16 PM 40.9694 -76.4406 106° East 367 422 18,200 -1,068 Descending New York Center
Fri 06:01:17 PM 40.9397 -76.3172 108° East 352 405 18,000 -198 Descending New York Center
Fri 06:02:17 PM 40.9100 -76.1939 108° East 352 405 17,800 -550 Descending New York Center
Fri 06:03:17 PM 40.8781 -76.0706 109° East 347 399 16,900 -1,361 Descending New York Center
Fri 06:04:16 PM 40.8500 -75.9531 107° East 347 399 15,100 -1,500 Descending New York Center
Fri 06:05:17 PM 40.8219 -75.8331 107° East 342 394 13,900 -1,041 Descending New York Center
Fri 06:06:17 PM 40.7950 -75.7297 109° East 336 387 13,000 -450 Descending New York Center
Fri 06:07:17 PM 40.7664 -75.6153 108° East 329 379 13,000  Level New York Center
Fri 06:08:18 PM 40.7361 -75.4897 108° East 329 379 13,000 -151 Level New York Center
Fri 06:09:16 PM 40.7114 -75.3731 106° East 334 384 12,700 -661 Descending New York Center
Fri 06:10:16 PM 40.6867 -75.2592 106° East 326 375 11,700 -992 Descending New York Center
Fri 06:11:17 PM 40.6617 -75.1508 107° East 320 368 10,700 -836 Descending New York Center
Fri 06:12:18 PM 40.6064 -75.0628 130° Southeast 307 353 10,000 -350 Descending New York Center
Fri 06:13:17 PM 40.5575 -74.9778 127° Southeast 301 346 10,000  Level New York Center
Fri 06:14:18 PM 40.5317 -74.8806 109° East 301 346 10,000  Level New York Center
Fri 06:15:03 PM 40.5000 -74.7833 113° Southeast 309 356 10,000  Level New York TRACON
Fri 06:15:57 PM 40.4667 -74.7000 118° Southeast 306 352 10,000  Level New York TRACON
Fri 06:17:03 PM 40.4333 -74.5833 111° Southeast 308 354 10,000 -636 Level New York TRACON
Fri 06:18:09 PM 40.4500 -74.4667 79° East 291 335 8,600 -1,381 Descending New York TRACON
Fri 06:19:09 PM 40.4667 -74.3667 78° East 271 312 7,100 -842 Descending New York TRACON
Fri 06:20:03 PM 40.5000 -74.2833 62° Northeast 272 313 7,000 -250 Descending New York TRACON
Fri 06:21:09 PM 40.5167 -74.1833 78° East 272 313 6,600 -1,000 Descending New York TRACON
Fri 06:22:09 PM 40.5500 -74.1000 62° Northeast 271 312 4,900 -1,150 Descending New York TRACON
Fri 06:23:09 PM 40.6000 -74.0333 45° Northeast 213 245 4,300 -600 Descending New York TRACON

Login

Don't have an account? Register now (free) for customized features, flight alerts, and more!